createdAt,value
2023-10-27T00:01:09.784Z,64.01
2023-10-27T00:03:39.471Z,63.62
2023-10-27T00:06:08.070Z,63.50
2023-10-27T00:08:39.314Z,63.56
2023-10-27T00:11:08.295Z,63.87
2023-10-27T00:13:36.568Z,63.88
2023-10-27T00:16:22.459Z,64.76
2023-10-27T00:18:58.144Z,65.23
2023-10-27T00:21:26.426Z,67.25
2023-10-27T00:23:54.707Z,69.24
2023-10-27T00:26:32.618Z,68.79
2023-10-27T00:29:06.828Z,66.70
2023-10-27T00:31:35.138Z,66.18
2023-10-27T00:34:07.049Z,64.75
2023-10-27T00:36:41.362Z,65.91
2023-10-27T00:39:09.665Z,66.66
2023-10-27T00:41:37.945Z,67.35
2023-10-27T00:44:09.562Z,67.47
2023-10-27T00:46:38.908Z,67.23
2023-10-27T00:49:11.291Z,67.14
2023-10-27T00:51:47.414Z,67.67
2023-10-27T00:54:16.861Z,67.59
2023-10-27T00:56:46.180Z,67.51
2023-10-27T00:59:17.568Z,69.40
2023-10-27T01:01:45.872Z,70.62
2023-10-27T01:04:18.728Z,69.46
2023-10-27T01:06:47.273Z,70.27
2023-10-27T01:09:18.445Z,71.65
2023-10-27T01:11:48.049Z,73.85
2023-10-27T01:14:16.638Z,71.62
2023-10-27T01:16:44.931Z,71.79
2023-10-27T01:19:13.385Z,71.25
2023-10-27T01:21:43.488Z,70.64
2023-10-27T01:24:16.259Z,69.05
2023-10-27T01:26:44.562Z,70.69
2023-10-27T01:29:12.817Z,71.02
2023-10-27T01:31:43.557Z,71.84
2023-10-27T01:34:13.601Z,73.43
2023-10-27T01:36:41.905Z,74.38
2023-10-27T01:39:14.197Z,74.67
2023-10-27T01:41:43.987Z,75.11
2023-10-27T01:44:12.226Z,73.07
2023-10-27T01:46:40.481Z,73.65
2023-10-27T01:49:08.937Z,72.46
2023-10-27T01:51:42.729Z,72.15
2023-10-27T01:54:14.137Z,71.02
2023-10-27T01:56:58.254Z,71.58
2023-10-27T01:59:30.252Z,72.92
2023-10-27T02:02:03.993Z,71.15
2023-10-27T02:04:36.603Z,72.66
2023-10-27T02:07:06.100Z,73.88
2023-10-27T02:09:34.390Z,72.88
2023-10-27T02:12:04.282Z,76.53
2023-10-27T02:14:32.586Z,72.77
2023-10-27T02:17:00.836Z,73.66
2023-10-27T02:19:29.259Z,74.08
2023-10-27T02:22:00.795Z,75.14
2023-10-27T02:24:29.302Z,71.13
2023-10-27T02:26:59.304Z,70.10
2023-10-27T02:29:29.040Z,71.89
2023-10-27T02:31:57.317Z,73.22
2023-10-27T02:34:26.298Z,72.72
2023-10-27T02:37:05.549Z,69.61
2023-10-27T02:39:33.873Z,68.08
2023-10-27T02:42:02.137Z,70.13
2023-10-27T02:44:31.766Z,71.85
2023-10-27T02:47:00.079Z,69.77
2023-10-27T02:49:28.422Z,69.85
2023-10-27T02:52:02.032Z,67.91
2023-10-27T02:54:30.394Z,67.29
2023-10-27T02:56:58.677Z,66.08
2023-10-27T02:59:26.981Z,66.30
2023-10-27T03:01:59.411Z,66.04
2023-10-27T03:04:33.804Z,66.19
2023-10-27T03:07:06.343Z,65.51
2023-10-27T03:09:34.713Z,65.17
2023-10-27T03:12:06.827Z,65.13
2023-10-27T03:14:37.393Z,65.10
2023-10-27T03:17:07.034Z,64.87
2023-10-27T03:19:42.903Z,64.88
2023-10-27T03:22:11.627Z,64.74
2023-10-27T03:24:39.974Z,64.78
2023-10-27T03:27:14.427Z,64.70
2023-10-27T03:29:42.747Z,65.20
2023-10-27T03:32:12.491Z,64.94
2023-10-27T03:34:44.335Z,64.72
2023-10-27T03:37:12.700Z,64.60
2023-10-27T03:39:41.443Z,64.54
2023-10-27T03:42:09.764Z,64.54
2023-10-27T03:44:41.139Z,65.45
2023-10-27T03:47:09.430Z,65.89
2023-10-27T03:49:39.164Z,65.16
2023-10-27T03:52:10.799Z,65.38
2023-10-27T03:54:41.653Z,65.41
2023-10-27T03:57:15.601Z,64.87
2023-10-27T03:59:47.520Z,64.62
2023-10-27T04:02:16.945Z,65.93
2023-10-27T04:04:46.652Z,66.32
2023-10-27T04:07:15.130Z,65.24
2023-10-27T04:09:46.063Z,64.75
2023-10-27T04:12:15.103Z,64.66
2023-10-27T04:14:43.416Z,64.45
2023-10-27T04:17:17.370Z,64.48
2023-10-27T04:19:53.051Z,64.47
2023-10-27T04:22:21.386Z,64.70
2023-10-27T04:25:00.759Z,66.10
2023-10-27T04:27:32.211Z,65.17
2023-10-27T04:30:00.487Z,65.93
2023-10-27T04:32:31.176Z,65.49
2023-10-27T04:35:07.658Z,65.28
2023-10-27T04:37:36.265Z,65.10
2023-10-27T04:40:04.944Z,65.11
2023-10-27T04:42:36.388Z,65.14
2023-10-27T04:45:05.736Z,64.86
2023-10-27T04:47:34.082Z,65.27
2023-10-27T04:50:02.377Z,66.26
2023-10-27T04:52:35.005Z,65.56
2023-10-27T04:55:07.402Z,65.15
2023-10-27T04:57:36.442Z,65.45
2023-10-27T05:00:06.495Z,64.93
2023-10-27T05:02:37.107Z,65.02
2023-10-27T05:05:06.283Z,64.58
2023-10-27T05:07:36.122Z,64.72
2023-10-27T05:10:04.684Z,65.62
2023-10-27T05:12:32.979Z,64.94
2023-10-27T05:15:01.213Z,64.97
2023-10-27T05:17:36.359Z,65.08
2023-10-27T05:20:09.575Z,69.74
2023-10-27T05:22:39.289Z,67.72
2023-10-27T05:25:08.794Z,66.16
2023-10-27T05:27:37.177Z,65.81
2023-10-27T05:30:09.622Z,65.31
2023-10-27T05:32:37.976Z,65.47
2023-10-27T05:35:07.692Z,65.37
2023-10-27T05:37:36.110Z,70.70
2023-10-27T05:40:07.010Z,69.67
2023-10-27T05:42:41.488Z,67.61
2023-10-27T05:45:13.059Z,66.37
2023-10-27T05:47:46.625Z,65.90
2023-10-27T05:50:17.888Z,66.16
2023-10-27T05:52:46.162Z,66.79
2023-10-27T05:55:16.025Z,67.03
2023-10-27T05:58:09.841Z,67.23
2023-10-27T06:00:38.807Z,74.15
2023-10-27T06:03:12.952Z,71.98
2023-10-27T06:05:41.358Z,70.40
2023-10-27T06:08:12.713Z,69.46
2023-10-27T06:10:42.997Z,71.52
2023-10-27T06:13:11.316Z,71.41
2023-10-27T06:15:39.677Z,70.42
2023-10-27T06:18:10.145Z,75.11
2023-10-27T06:20:40.980Z,74.72
2023-10-27T06:23:18.486Z,71.84
2023-10-27T06:25:48.151Z,75.29
2023-10-27T06:28:16.507Z,77.33
2023-10-27T06:30:47.271Z,76.52
2023-10-27T06:33:15.730Z,74.49
2023-10-27T06:35:48.241Z,71.30
2023-10-27T06:38:16.538Z,71.63
2023-10-27T06:40:44.810Z,72.55
2023-10-27T06:43:17.400Z,74.01
2023-10-27T06:45:45.732Z,73.70
2023-10-27T06:48:14.104Z,72.00
2023-10-27T06:50:46.973Z,72.04
2023-10-27T06:53:15.275Z,72.30
2023-10-27T06:55:47.896Z,69.72
2023-10-27T06:58:20.293Z,71.22
2023-10-27T07:00:57.878Z,71.29
2023-10-27T07:03:32.109Z,69.64
2023-10-27T07:06:01.883Z,69.63
2023-10-27T07:08:33.022Z,71.12
2023-10-27T07:11:04.926Z,73.14
2023-10-27T07:13:34.665Z,72.01
2023-10-27T07:16:04.155Z,73.64
2023-10-27T07:18:35.281Z,73.67
2023-10-27T07:24:03.170Z,73.79
2023-10-27T07:26:34.273Z,71.49
2023-10-27T07:29:04.675Z,77.11
2023-10-27T07:31:35.755Z,78.37
2023-10-27T07:34:06.700Z,76.90
2023-10-27T07:36:35.275Z,75.72
2023-10-27T07:39:06.816Z,75.69
2023-10-27T07:41:35.940Z,76.55
2023-10-27T07:44:07.652Z,76.27
2023-10-27T07:46:35.995Z,73.89
2023-10-27T07:49:04.506Z,75.65
2023-10-27T07:51:35.908Z,76.03
2023-10-27T07:54:05.331Z,74.13
2023-10-27T07:56:48.836Z,75.22
2023-10-27T07:59:18.514Z,74.23
2023-10-27T08:01:47.087Z,75.51
2023-10-27T08:04:20.171Z,76.96
2023-10-27T08:07:00.778Z,78.07
2023-10-27T08:09:30.810Z,77.21
2023-10-27T08:12:02.212Z,78.27
2023-10-27T08:14:31.887Z,78.78
2023-10-27T08:17:00.162Z,78.70
2023-10-27T08:19:28.471Z,76.21
2023-10-27T08:21:56.751Z,77.53
2023-10-27T08:24:28.031Z,77.53
2023-10-27T08:26:59.321Z,77.95
2023-10-27T08:29:35.112Z,76.77
2023-10-27T08:32:03.611Z,77.66
2023-10-27T08:34:31.949Z,74.01
2023-10-27T08:37:12.491Z,77.02
2023-10-27T08:39:43.712Z,77.76
2023-10-27T08:42:12.583Z,77.89
2023-10-27T08:44:45.965Z,76.33
2023-10-27T08:47:17.507Z,73.63
2023-10-27T08:49:46.344Z,74.44
2023-10-27T08:52:24.098Z,76.20
2023-10-27T08:54:52.418Z,76.50
2023-10-27T08:57:23.580Z,76.33
2023-10-27T08:59:56.921Z,76.08
2023-10-27T09:02:34.113Z,74.88
2023-10-27T09:05:08.133Z,76.66
2023-10-27T09:07:37.385Z,73.83
2023-10-27T09:10:07.977Z,76.81
2023-10-27T09:12:39.096Z,75.93
2023-10-27T09:15:14.405Z,75.73
2023-10-27T09:18:04.406Z,73.95
2023-10-27T09:20:34.129Z,74.92
2023-10-27T09:23:05.630Z,74.21
2023-10-27T09:25:36.582Z,74.21
2023-10-27T09:28:08.747Z,79.31
2023-10-27T09:30:40.726Z,78.58
2023-10-27T09:33:19.913Z,77.34
2023-10-27T09:36:04.176Z,78.89
2023-10-27T09:41:09.298Z,73.33
2023-10-27T09:43:49.099Z,74.83
2023-10-27T09:46:22.045Z,76.08
2023-10-27T09:49:14.569Z,71.98
2023-10-27T09:51:48.027Z,74.47
2023-10-27T09:54:16.441Z,78.28
2023-10-27T09:56:45.399Z,72.76
2023-10-27T09:59:14.039Z,74.78
2023-10-27T10:01:47.242Z,74.21
2023-10-27T10:04:53.211Z,73.31
2023-10-27T10:07:31.232Z,74.74
2023-10-27T10:10:30.548Z,74.09
2023-10-27T10:13:09.323Z,78.65
2023-10-27T10:15:39.829Z,78.53
2023-10-27T10:18:31.132Z,78.31
2023-10-27T10:21:07.569Z,76.69
2023-10-27T10:24:09.319Z,77.25
2023-10-27T10:27:13.606Z,74.56
2023-10-27T10:29:42.539Z,74.27
2023-10-27T10:32:33.787Z,73.14
2023-10-27T10:38:40.037Z,74.03
2023-10-27T10:41:08.533Z,75.48
2023-10-27T10:43:39.421Z,79.37
2023-10-27T10:46:11.853Z,79.00
2023-10-27T10:48:44.169Z,80.22
2023-10-27T10:51:18.636Z,79.29
2023-10-27T10:53:57.980Z,78.53
2023-10-27T10:56:35.219Z,72.81
2023-10-27T10:59:06.789Z,78.54
2023-10-27T11:01:36.076Z,76.74
2023-10-27T11:04:07.618Z,74.42
2023-10-27T11:06:37.420Z,74.32
2023-10-27T11:09:06.475Z,74.86
2023-10-27T11:11:47.713Z,73.80
2023-10-27T11:14:16.688Z,74.21
2023-10-27T11:17:01.581Z,74.68
2023-10-27T11:19:30.038Z,73.78
2023-10-27T11:21:59.703Z,77.89
2023-10-27T11:24:27.998Z,75.93
2023-10-27T11:26:56.283Z,73.19
2023-10-27T11:29:30.524Z,78.12
2023-10-27T11:32:18.417Z,76.25
2023-10-27T11:35:04.415Z,72.37
2023-10-27T11:37:36.923Z,74.94
2023-10-27T11:40:15.450Z,71.87
2023-10-27T11:42:43.727Z,73.04
2023-10-27T11:45:12.151Z,73.33
2023-10-27T11:47:42.914Z,72.55
2023-10-27T11:50:17.626Z,76.22
2023-10-27T11:53:01.883Z,74.73
2023-10-27T11:55:40.700Z,72.65
2023-10-27T11:58:09.054Z,73.71
2023-10-27T12:00:37.354Z,75.85
2023-10-27T12:03:05.708Z,74.35
2023-10-27T12:05:37.193Z,73.32
2023-10-27T12:08:07.099Z,71.18
2023-10-27T12:10:36.186Z,73.37
2023-10-27T12:13:08.903Z,75.37
2023-10-27T12:15:40.187Z,76.03
2023-10-27T12:18:08.789Z,72.93
2023-10-27T12:20:40.072Z,74.16
2023-10-27T12:23:10.285Z,75.50
2023-10-27T12:25:44.109Z,76.55
2023-10-27T12:28:13.704Z,74.74
2023-10-27T12:30:45.908Z,76.57
2023-10-27T12:33:14.209Z,74.07
2023-10-27T12:35:50.117Z,73.59
2023-10-27T12:38:20.584Z,71.96
2023-10-27T12:40:49.604Z,70.27
2023-10-27T12:43:20.761Z,70.67
2023-10-27T12:45:55.257Z,70.16
2023-10-27T12:48:39.576Z,72.08
2023-10-27T12:51:11.642Z,72.67
2023-10-27T12:53:44.610Z,75.13
2023-10-27T12:56:12.930Z,75.10
2023-10-27T12:58:42.441Z,75.24
2023-10-27T13:01:10.963Z,73.92
2023-10-27T13:03:39.383Z,73.31
2023-10-27T13:06:08.207Z,72.54
2023-10-27T13:08:36.454Z,72.53
2023-10-27T13:11:09.936Z,73.48
2023-10-27T13:13:38.429Z,74.00
2023-10-27T13:16:14.579Z,71.16
2023-10-27T13:18:49.389Z,70.28
2023-10-27T13:21:20.037Z,71.27
2023-10-27T13:23:48.443Z,74.91
2023-10-27T13:26:24.073Z,75.57
2023-10-27T13:28:52.491Z,75.74
2023-10-27T13:31:23.719Z,75.50
2023-10-27T13:33:52.144Z,78.73
2023-10-27T13:36:20.719Z,78.67
2023-10-27T13:39:10.477Z,76.69
2023-10-27T13:41:42.761Z,75.50
2023-10-27T13:44:14.006Z,77.49
2023-10-27T13:46:48.748Z,77.53
2023-10-27T13:49:21.133Z,75.21
2023-10-27T13:51:49.550Z,74.92
2023-10-27T13:54:25.407Z,76.64
2023-10-27T13:57:00.988Z,75.50
2023-10-27T13:59:30.552Z,76.62
2023-10-27T14:01:59.687Z,75.46
2023-10-27T14:04:28.583Z,74.15
2023-10-27T14:06:58.313Z,72.89
2023-10-27T14:09:30.355Z,73.61
2023-10-27T14:12:01.381Z,73.65
2023-10-27T14:14:29.616Z,72.53
2023-10-27T14:16:59.134Z,72.39
2023-10-27T14:19:28.838Z,71.12
2023-10-27T14:22:00.672Z,75.88
2023-10-27T14:24:31.813Z,75.18
2023-10-27T14:27:01.487Z,74.41
2023-10-27T14:29:33.023Z,72.41
2023-10-27T14:32:04.952Z,75.59
2023-10-27T14:34:33.758Z,75.80
2023-10-27T14:37:05.865Z,75.05
2023-10-27T14:39:43.093Z,73.95
2023-10-27T14:42:18.870Z,73.43
2023-10-27T14:44:47.241Z,74.63
2023-10-27T14:47:40.267Z,73.28
2023-10-27T14:50:14.427Z,76.88
2023-10-27T14:52:45.893Z,78.21
2023-10-27T14:55:17.202Z,76.62
2023-10-27T14:57:46.894Z,72.63
2023-10-27T15:00:19.858Z,75.60
2023-10-27T15:02:54.455Z,74.15
2023-10-27T15:05:25.474Z,74.62
2023-10-27T15:07:56.759Z,76.43
2023-10-27T15:10:25.165Z,75.76
2023-10-27T15:13:00.670Z,74.29
2023-10-27T15:15:34.883Z,76.05
2023-10-27T15:18:06.358Z,75.96
2023-10-27T15:20:37.889Z,75.19
2023-10-27T15:23:10.220Z,76.94
2023-10-27T15:25:38.923Z,72.87
2023-10-27T15:28:08.671Z,73.42
2023-10-27T15:30:36.934Z,74.02
2023-10-27T15:33:05.430Z,74.65
2023-10-27T15:35:37.543Z,74.39
2023-10-27T15:38:09.671Z,75.94
2023-10-27T15:40:40.202Z,77.78
2023-10-27T15:43:12.677Z,77.35
2023-10-27T15:45:42.140Z,75.87
2023-10-27T15:48:11.554Z,76.97
2023-10-27T15:50:42.727Z,78.88
2023-10-27T15:53:14.641Z,75.16
2023-10-27T15:55:43.058Z,74.87
2023-10-27T15:58:15.861Z,78.27
2023-10-27T16:00:47.255Z,77.42
2023-10-27T16:03:18.731Z,74.96
2023-10-27T16:05:56.696Z,73.33
2023-10-27T16:08:28.393Z,75.09
2023-10-27T16:11:06.663Z,76.45
2023-10-27T16:13:39.291Z,77.36
2023-10-27T16:16:10.449Z,78.01
2023-10-27T16:18:45.100Z,77.27
2023-10-27T16:21:13.997Z,77.24
2023-10-27T16:23:44.455Z,74.76
2023-10-27T16:26:16.000Z,76.29
2023-10-27T16:28:50.890Z,77.71
2023-10-27T16:31:19.483Z,75.56
2023-10-27T16:33:54.217Z,75.45
2023-10-27T16:36:25.423Z,73.98
2023-10-27T16:38:54.432Z,73.42
2023-10-27T16:41:22.820Z,74.62
2023-10-27T16:43:53.785Z,73.49
2023-10-27T16:46:29.679Z,73.92
2023-10-27T16:49:01.370Z,72.81
2023-10-27T16:51:37.548Z,73.36
2023-10-27T16:54:06.459Z,75.49
2023-10-27T16:56:36.908Z,73.68
2023-10-27T16:59:06.683Z,75.97
2023-10-27T17:01:35.006Z,75.58
2023-10-27T17:04:11.330Z,71.87
2023-10-27T17:06:39.628Z,70.94
2023-10-27T17:09:18.698Z,71.13
2023-10-27T17:11:46.985Z,72.15
2023-10-27T17:14:19.134Z,72.34
2023-10-27T17:16:47.424Z,70.91
2023-10-27T17:19:25.799Z,71.16
2023-10-27T17:21:58.757Z,69.78
2023-10-27T17:24:27.009Z,70.55
2023-10-27T17:27:01.701Z,70.44
2023-10-27T17:29:34.685Z,71.07
2023-10-27T17:32:02.938Z,69.31
2023-10-27T17:34:34.308Z,69.85
2023-10-27T17:37:05.021Z,69.21
2023-10-27T17:39:37.947Z,68.35
2023-10-27T17:42:07.111Z,67.49
2023-10-27T17:44:39.684Z,66.82
2023-10-27T17:47:08.385Z,66.96
2023-10-27T17:49:36.844Z,66.64
2023-10-27T17:52:05.722Z,66.91
2023-10-27T17:54:34.537Z,67.20
2023-10-27T17:57:04.369Z,66.67
2023-10-27T17:59:43.315Z,66.43
2023-10-27T18:02:21.092Z,66.31
2023-10-27T18:04:49.999Z,66.31
2023-10-27T18:07:27.597Z,66.01
2023-10-27T18:09:58.796Z,66.01
2023-10-27T18:12:27.376Z,65.77
2023-10-27T18:14:59.921Z,65.82
2023-10-27T18:17:28.242Z,66.06
2023-10-27T18:20:07.290Z,65.99
2023-10-27T18:22:37.278Z,65.89
2023-10-27T18:25:06.588Z,65.64
2023-10-27T18:27:35.031Z,65.93
2023-10-27T18:30:09.777Z,65.70
2023-10-27T18:32:38.243Z,65.42
2023-10-27T18:35:13.156Z,65.48
2023-10-27T18:37:44.234Z,64.17
2023-10-27T18:40:18.833Z,66.73
2023-10-27T18:42:49.092Z,65.53
2023-10-27T18:45:21.885Z,67.66
2023-10-27T18:47:51.076Z,67.07
2023-10-27T18:50:19.504Z,65.77
2023-10-27T18:52:47.903Z,68.84
2023-10-27T18:55:21.051Z,69.15
2023-10-27T18:57:53.180Z,70.65
2023-10-27T19:00:23.792Z,72.41
2023-10-27T19:03:03.111Z,70.20
2023-10-27T19:05:36.980Z,70.80
2023-10-27T19:08:08.489Z,70.50
2023-10-27T19:10:39.621Z,70.52
2023-10-27T19:13:08.951Z,70.39
2023-10-27T19:15:39.101Z,69.94
2023-10-27T19:18:07.638Z,70.23
2023-10-27T19:20:41.757Z,68.83
2023-10-27T19:23:16.151Z,70.33
2023-10-27T19:25:44.490Z,71.88
2023-10-27T19:28:12.773Z,71.35
2023-10-27T19:30:53.571Z,71.84
2023-10-27T19:33:26.793Z,71.06
2023-10-27T19:35:55.700Z,71.44
2023-10-27T19:38:23.982Z,70.76
2023-10-27T19:40:52.341Z,68.59
2023-10-27T19:43:20.970Z,69.32
2023-10-27T19:45:54.446Z,67.90
2023-10-27T19:48:30.067Z,70.58
2023-10-27T19:50:58.687Z,71.65
2023-10-27T19:53:29.227Z,72.01
2023-10-27T19:55:57.572Z,73.33
2023-10-27T19:58:26.140Z,72.84
2023-10-27T20:00:55.868Z,72.38
2023-10-27T20:03:30.314Z,75.36
2023-10-27T20:06:09.237Z,71.60
2023-10-27T20:08:44.484Z,71.69
2023-10-27T20:11:17.836Z,68.83
2023-10-27T20:13:48.639Z,67.98
2023-10-27T20:16:21.100Z,68.37
2023-10-27T20:18:53.229Z,67.02
2023-10-27T20:21:24.786Z,66.04
2023-10-27T20:23:54.298Z,65.51
2023-10-27T20:26:28.578Z,68.09
2023-10-27T20:29:03.306Z,67.88
2023-10-27T20:31:33.033Z,68.56
2023-10-27T20:34:15.276Z,66.73
2023-10-27T20:36:43.624Z,65.43
2023-10-27T20:39:17.684Z,68.44
2023-10-27T20:41:47.031Z,66.94
2023-10-27T20:44:15.297Z,67.48
2023-10-27T20:46:45.016Z,69.03
2023-10-27T20:49:16.278Z,67.08
2023-10-27T20:51:50.671Z,68.13
2023-10-27T20:54:25.375Z,66.42
2023-10-27T20:56:53.726Z,65.60
2023-10-27T20:59:31.372Z,66.92
2023-10-27T21:02:04.186Z,65.66
2023-10-27T21:04:35.619Z,66.19
2023-10-27T21:07:04.326Z,66.56
2023-10-27T21:09:35.707Z,64.46
2023-10-27T21:12:05.319Z,67.78
2023-10-27T21:14:35.988Z,67.63
2023-10-27T21:17:06.021Z,68.08
2023-10-27T21:19:46.739Z,67.49
2023-10-27T21:22:24.491Z,65.68
2023-10-27T21:24:53.690Z,66.40
2023-10-27T21:27:27.781Z,65.44
2023-10-27T21:30:06.792Z,64.85
2023-10-27T21:32:39.512Z,64.60
2023-10-27T21:35:13.056Z,64.39
2023-10-27T21:37:43.576Z,64.36
2023-10-27T21:40:16.653Z,63.91
2023-10-27T21:42:44.934Z,63.80
2023-10-27T21:45:13.557Z,63.72
2023-10-27T21:47:46.077Z,63.53
2023-10-27T21:50:17.378Z,63.83
2023-10-27T21:52:49.302Z,64.51
2023-10-27T21:55:20.116Z,63.87
2023-10-27T21:57:51.270Z,63.78
2023-10-27T22:00:32.589Z,63.92
2023-10-27T22:03:11.623Z,63.51
2023-10-27T22:05:40.543Z,63.65
2023-10-27T22:08:08.848Z,63.59
2023-10-27T22:10:38.892Z,63.35
2023-10-27T22:13:07.361Z,63.42
2023-10-27T22:15:37.192Z,63.38
2023-10-27T22:18:16.910Z,66.76
2023-10-27T22:20:45.559Z,67.11
2023-10-27T22:23:36.709Z,69.66
2023-10-27T22:26:05.946Z,66.31
2023-10-27T22:28:37.349Z,72.49
2023-10-27T22:31:10.559Z,70.01
2023-10-27T22:33:40.283Z,68.63
2023-10-27T22:36:12.143Z,66.39
2023-10-27T22:38:43.442Z,69.29
2023-10-27T22:41:17.299Z,69.71
2023-10-27T22:43:45.593Z,72.86
2023-10-27T22:46:14.073Z,72.80
2023-10-27T22:48:43.994Z,71.18
2023-10-27T22:51:16.020Z,72.11
2023-10-27T22:53:46.438Z,72.05
2023-10-27T22:56:15.674Z,70.25
2023-10-27T22:58:44.153Z,67.42
2023-10-27T23:01:12.994Z,67.19
2023-10-27T23:03:41.383Z,69.72
2023-10-27T23:06:13.307Z,73.24
2023-10-27T23:08:47.643Z,70.81
2023-10-27T23:11:16.428Z,67.46
2023-10-27T23:13:45.547Z,67.67
2023-10-27T23:16:16.896Z,67.30
2023-10-27T23:18:45.424Z,69.94
2023-10-27T23:21:17.898Z,70.62
2023-10-27T23:23:48.237Z,68.64
2023-10-27T23:26:17.223Z,66.96
2023-10-27T23:28:46.116Z,64.62
2023-10-27T23:31:16.942Z,66.56
2023-10-27T23:33:45.442Z,68.40
2023-10-27T23:36:17.782Z,66.75
2023-10-27T23:38:50.239Z,66.25
2023-10-27T23:41:21.285Z,66.37
2023-10-27T23:43:51.954Z,65.78
2023-10-27T23:46:26.276Z,63.57
2023-10-27T23:48:54.701Z,67.27
2023-10-27T23:51:28.809Z,70.90
2023-10-27T23:54:16.144Z,68.78
2023-10-27T23:56:44.442Z,68.57
2023-10-27T23:59:12.748Z,67.65
